createdAt,value
2022-11-26T00:01:30.047Z,30.45
2022-11-26T00:06:35.003Z,35.22
2022-11-26T00:11:36.411Z,27.10
2022-11-26T00:16:37.838Z,25.25
2022-11-26T00:21:41.114Z,25.13
2022-11-26T00:26:42.492Z,32.92
2022-11-26T00:31:43.878Z,30.15
2022-11-26T00:36:45.542Z,32.42
2022-11-26T00:41:50.766Z,24.67
2022-11-26T00:46:52.798Z,25.98
2022-11-26T00:51:54.294Z,27.60
2022-11-26T00:56:55.747Z,25.13
2022-11-26T01:01:57.151Z,26.42
2022-11-26T01:06:58.563Z,29.35
2022-11-26T01:11:59.975Z,28.80
2022-11-26T01:17:01.434Z,25.65
2022-11-26T01:22:02.951Z,28.27
2022-11-26T01:27:08.855Z,32.72
2022-11-26T01:32:11.281Z,29.15
2022-11-26T01:37:14.221Z,29.27
2022-11-26T01:42:41.719Z,28.42
2022-11-26T01:47:44.159Z,25.40
2022-11-26T01:52:45.851Z,27.35
2022-11-26T01:57:48.647Z,29.20
2022-11-26T02:02:50.123Z,27.10
2022-11-26T02:07:53.159Z,26.83
2022-11-26T02:18:02.057Z,21.58
2022-11-26T02:23:25.779Z,23.10
2022-11-26T02:29:00.252Z,22.67
2022-11-26T02:34:21.383Z,22.27
2022-11-26T02:39:26.231Z,28.85
2022-11-26T02:44:46.715Z,28.10
2022-11-26T02:49:51.351Z,32.08
2022-11-26T02:54:52.966Z,30.02
2022-11-26T02:59:54.514Z,27.02
2022-11-26T03:04:59.691Z,39.03
2022-11-26T03:10:02.060Z,34.75
2022-11-26T03:15:03.684Z,34.95
2022-11-26T03:20:08.185Z,33.07
2022-11-26T03:25:10.254Z,34.58
2022-11-26T03:30:12.058Z,34.92
2022-11-26T03:35:13.619Z,37.70
2022-11-26T03:40:16.663Z,32.28
2022-11-26T03:50:19.407Z,31.83
2022-11-26T03:55:21.762Z,38.77
2022-11-26T04:00:23.259Z,32.00
2022-11-26T04:05:24.640Z,27.63
2022-11-26T04:10:26.104Z,39.22
2022-11-26T04:15:27.777Z,36.53
2022-11-26T04:20:29.194Z,30.83
2022-11-26T04:25:30.559Z,37.72
2022-11-26T04:30:31.930Z,36.55
2022-11-26T04:35:33.415Z,34.65
2022-11-26T04:40:34.835Z,36.40
2022-11-26T04:45:36.245Z,40.53
2022-11-26T04:50:37.651Z,36.55
2022-11-26T04:55:39.018Z,42.08
2022-11-26T05:00:40.418Z,39.33
2022-11-26T05:05:41.942Z,30.13
2022-11-26T05:10:43.379Z,40.90
2022-11-26T05:15:44.742Z,36.20
2022-11-26T05:20:46.137Z,31.70
2022-11-26T05:25:47.866Z,27.83
2022-11-26T05:30:49.386Z,34.03
2022-11-26T05:35:50.776Z,28.45
2022-11-26T05:40:52.139Z,26.73
2022-11-26T05:45:53.660Z,33.83
2022-11-26T05:50:59.210Z,30.60
2022-11-26T05:56:00.659Z,31.63
2022-11-26T06:01:07.721Z,34.45
2022-11-26T06:06:09.263Z,40.58
2022-11-26T06:11:12.850Z,40.88
2022-11-26T06:16:14.317Z,46.17
2022-11-26T06:21:15.770Z,38.97
2022-11-26T06:26:17.143Z,39.33
2022-11-26T06:31:18.779Z,39.95
2022-11-26T06:36:20.407Z,44.17
2022-11-26T06:41:21.839Z,46.67
2022-11-26T06:46:23.299Z,42.22
2022-11-26T06:51:27.578Z,36.55
2022-11-26T06:56:29.252Z,41.95
2022-11-26T07:01:30.976Z,42.85
2022-11-26T07:06:33.085Z,42.72
2022-11-26T07:11:35.738Z,36.47
2022-11-26T07:16:37.201Z,48.30
2022-11-26T07:21:38.608Z,47.63
2022-11-26T07:26:39.992Z,43.03
2022-11-26T07:31:41.588Z,43.85
2022-11-26T07:36:43.451Z,38.97
2022-11-26T07:41:44.859Z,45.70
2022-11-26T07:46:46.308Z,44.20
2022-11-26T07:51:47.723Z,32.58
2022-11-26T07:56:49.106Z,30.92
2022-11-26T08:01:50.576Z,37.53
2022-11-26T08:06:52.106Z,41.92
2022-11-26T08:11:53.485Z,38.70
2022-11-26T08:16:54.939Z,30.70
2022-11-26T08:21:56.331Z,34.95
2022-11-26T08:27:00.556Z,27.77
2022-11-26T08:32:02.022Z,36.38
2022-11-26T08:37:03.667Z,26.50
2022-11-26T08:42:05.126Z,33.90
2022-11-26T08:47:06.552Z,31.35
2022-11-26T08:52:07.992Z,31.90
2022-11-26T08:57:09.368Z,28.40
2022-11-26T09:02:15.981Z,28.35
2022-11-26T09:07:19.932Z,31.38
2022-11-26T09:12:23.016Z,29.15
2022-11-26T09:17:26.865Z,30.85
2022-11-26T09:22:28.250Z,28.35
2022-11-26T09:27:29.708Z,25.85
2022-11-26T09:32:34.181Z,16.42
2022-11-26T09:37:36.270Z,20.30
2022-11-26T09:43:08.187Z,20.02
2022-11-26T09:48:16.647Z,21.90
2022-11-26T09:53:28.319Z,19.52
2022-11-26T09:58:49.096Z,21.83
2022-11-26T10:03:51.964Z,25.70
2022-11-26T10:09:14.963Z,21.08
2022-11-26T10:14:53.944Z,18.65
2022-11-26T10:20:16.030Z,22.25
2022-11-26T10:25:20.570Z,21.55
2022-11-26T10:30:25.261Z,18.55
2022-11-26T10:35:29.722Z,22.38
2022-11-26T10:40:32.130Z,21.25
2022-11-26T10:45:54.020Z,15.20
2022-11-26T10:50:55.567Z,16.10
2022-11-26T10:56:04.085Z,20.05
2022-11-26T11:01:06.820Z,17.33
2022-11-26T11:06:33.118Z,15.38
2022-11-26T11:11:34.623Z,15.05
2022-11-26T11:16:46.120Z,16.08
2022-11-26T11:21:48.653Z,17.60
2022-11-26T11:26:55.739Z,20.90
2022-11-26T11:31:57.650Z,11.05
2022-11-26T11:37:06.131Z,16.53
2022-11-26T11:42:22.478Z,10.65
2022-11-26T11:47:47.443Z,16.20
2022-11-26T11:52:51.962Z,10.65
2022-11-26T11:58:18.315Z,20.55
2022-11-26T12:03:26.442Z,12.63
2022-11-26T12:08:54.921Z,13.93
2022-11-26T12:14:20.610Z,18.15
2022-11-26T12:19:29.118Z,14.60
2022-11-26T12:24:46.399Z,16.73
2022-11-26T12:29:55.739Z,13.68
2022-11-26T12:35:04.182Z,18.55
2022-11-26T12:40:41.741Z,16.73
2022-11-26T12:46:04.863Z,13.45
2022-11-26T12:56:41.966Z,12.23
2022-11-26T13:01:43.391Z,18.88
2022-11-26T13:07:08.049Z,12.50
2022-11-26T13:12:42.371Z,11.02
2022-11-26T13:17:46.340Z,16.40
2022-11-26T13:23:33.267Z,12.85
2022-11-26T13:28:43.662Z,16.48
2022-11-26T13:34:03.860Z,15.70
2022-11-26T13:39:13.794Z,14.45
2022-11-26T13:44:49.190Z,12.07
2022-11-26T13:50:07.686Z,19.95
2022-11-26T13:55:17.043Z,17.50
2022-11-26T14:00:27.323Z,19.83
2022-11-26T14:05:48.928Z,17.30
2022-11-26T14:10:50.314Z,15.65
2022-11-26T14:16:01.442Z,12.82
2022-11-26T14:21:03.916Z,13.82
2022-11-26T14:26:06.494Z,11.95
2022-11-26T14:31:25.892Z,13.55
2022-11-26T14:36:29.727Z,11.75
2022-11-26T14:41:43.136Z,11.68
2022-11-26T14:46:48.208Z,14.48
2022-11-26T14:51:53.342Z,14.90
2022-11-26T14:56:58.994Z,12.50
2022-11-26T15:02:00.464Z,19.23
2022-11-26T15:07:01.896Z,12.30
2022-11-26T15:12:11.896Z,20.05
2022-11-26T15:17:17.061Z,19.85
2022-11-26T15:22:44.148Z,16.40
2022-11-26T15:28:01.934Z,22.05
2022-11-26T15:33:12.302Z,23.92
2022-11-26T15:38:16.083Z,27.55
2022-11-26T15:43:42.738Z,26.42
2022-11-26T15:48:53.722Z,24.35
2022-11-26T15:53:55.598Z,23.95
2022-11-26T15:59:00.473Z,21.75
2022-11-26T16:04:06.041Z,16.40
2022-11-26T16:09:13.666Z,13.57
2022-11-26T16:14:32.907Z,14.48
2022-11-26T16:19:34.318Z,17.35
2022-11-26T16:24:43.526Z,19.35
2022-11-26T16:29:45.522Z,15.93
2022-11-26T16:34:46.941Z,18.48
2022-11-26T16:39:50.313Z,15.00
2022-11-26T16:44:51.751Z,15.68
2022-11-26T16:49:53.750Z,17.40
2022-11-26T16:54:55.186Z,13.13
2022-11-26T17:00:05.317Z,18.85
2022-11-26T17:05:07.014Z,14.02
2022-11-26T17:10:18.314Z,19.27
2022-11-26T17:15:19.825Z,19.15
2022-11-26T17:20:26.695Z,17.95
2022-11-26T17:25:29.571Z,15.23
2022-11-26T17:30:31.071Z,20.05
2022-11-26T17:35:32.652Z,14.82
2022-11-26T17:40:34.424Z,11.70
2022-11-26T17:45:36.135Z,20.98
2022-11-26T17:50:37.562Z,12.10
2022-11-26T17:55:39.155Z,18.92
2022-11-26T18:05:56.631Z,22.00
2022-11-26T18:10:58.263Z,12.27
2022-11-26T18:16:00.102Z,17.40
2022-11-26T18:21:01.663Z,18.35
2022-11-26T18:26:03.120Z,23.00
2022-11-26T18:31:04.623Z,22.85
2022-11-26T18:36:06.367Z,22.55
2022-11-26T18:41:08.203Z,18.58
2022-11-26T18:46:17.209Z,24.23
2022-11-26T18:51:18.875Z,22.75
2022-11-26T18:56:24.939Z,22.55
2022-11-26T19:01:39.568Z,22.23
2022-11-26T19:06:45.142Z,19.25
2022-11-26T19:17:21.801Z,25.63
2022-11-26T19:33:25.448Z,23.08
2022-11-26T19:38:47.813Z,19.25
2022-11-26T19:44:21.999Z,18.83
2022-11-26T19:49:23.455Z,19.75
2022-11-26T19:54:28.401Z,19.77
2022-11-26T19:59:30.771Z,22.60
2022-11-26T20:04:32.304Z,18.05
2022-11-26T20:09:33.874Z,15.45
2022-11-26T20:14:35.254Z,12.90
2022-11-26T20:19:37.320Z,15.25
2022-11-26T20:24:38.882Z,17.27
2022-11-26T20:36:24.391Z,15.05
2022-11-26T20:49:40.047Z,12.77
2022-11-26T21:00:24.803Z,19.70
2022-11-26T21:12:20.471Z,14.80
2022-11-26T21:23:34.147Z,12.35
2022-11-26T21:28:36.798Z,9.23
2022-11-26T21:40:08.986Z,13.75
2022-11-26T21:57:26.682Z,12.88
2022-11-26T22:02:40.451Z,21.27
2022-11-26T22:21:02.348Z,19.60
2022-11-26T22:26:04.007Z,20.23
2022-11-26T22:31:14.871Z,22.42
2022-11-26T22:36:16.451Z,18.35
2022-11-26T22:41:18.002Z,17.95
2022-11-26T22:46:21.929Z,23.13
2022-11-26T22:51:24.837Z,17.63
2022-11-26T22:56:28.233Z,18.55
2022-11-26T23:01:31.796Z,20.13
2022-11-26T23:06:34.716Z,15.18
2022-11-26T23:11:38.892Z,14.68
2022-11-26T23:16:42.657Z,13.88
2022-11-26T23:21:46.479Z,22.58
2022-11-26T23:26:47.911Z,18.27
2022-11-26T23:31:50.477Z,23.15
2022-11-26T23:36:51.878Z,18.02
2022-11-26T23:41:53.247Z,21.77
2022-11-26T23:46:54.654Z,15.63
2022-11-26T23:51:56.027Z,16.98
2022-11-26T23:56:57.427Z,19.02
